Cary, NC

2:00 PM EDT on July 02, 2015 (GMT -0400)
Harmony Subdivision II | | Change Station
CLOSE
Current Station
Personal Weather Station
Location: Cary, NC
Elevation: 335 ft
Nearby Weather Stations

Elev 335 ft 35.77 °N, 78.88 °W | Updated 7 minutes ago

Mostly Cloudy
Mostly Cloudy
84.2 °F
Feels Like 87 °F
N
4.2
Wind Variable Wind from North

Today
High -- | Low -- °F
--% Chance of Precip.
Yesterday
High -- | Low -- °F
Precip. -- in
6:03 AM 8:35 PM
Waxing Gibbous, 99% visible
Pressure 29.91 in
Visibility 10.0 miles
Clouds Scattered Clouds 4000 ft
Mostly Cloudy 12000 ft
Mostly Cloudy 25000 ft
Heat Index 87 °F
Dew Point 68 °F
Humidity 58%
Rainfall 0.00 in
Snow Depth Not available.
UV 6 out of 12
Pollen 2.20 out of 12
Air Quality Not available.
Flu Activity Not available.
METAR KRDU 021751Z 26009KT 10SM SCT040 BKN120 BKN250 29/20 A2992 RMK AO2 SLP126 T02940200 10300 20239 55006

More Conditions Fewer Conditions

Pressure 29.91 in
Visibility 10.0 miles
Clouds Scattered Clouds 4000 ft
Mostly Cloudy 12000 ft
Mostly Cloudy 25000 ft
Heat Index 87 °F
Dew Point 68 °F
Humidity 58%
Rainfall 0.00 in
Snow Depth Not available.
UV 6 out of 12
Pollen 2.20 out of 12
Air Quality Not available.
Flu Activity Not available.
METAR KRDU 021751Z 26009KT 10SM SCT040 BKN120 BKN250 29/20 A2992 RMK AO2 SLP126 T02940200 10300 20239 55006

More Conditions Fewer Conditions

10-Day Weather Forecast

×

Almanac

Astronomy

Jul. 02, 2015 Rise Set
Actual Time
Civil Twilight
Nautical Twilight
Astronomical Twilight
Moon
Length of Visible Light
Length of Day
Tomorrow will be .
, % of the Moon is Illuminated

Today's Extremes

State Highs State Lows

Community

WunderPhotos

Upload Photos

1,834,506 photos uploaded!

WunderBlogs® & News

Nearby

Air Quality

  Air Quality AQ Index Pollutant
Not available.

Snow Depth

Station Depth Elevation

Earthquake Activity

City Distance Mag. Time & Date
Minimum magnitude displayed is 2.5.

Coastal Water Temperatures

Place Temperature

Stations

Nearby Weather Stations

Station Location Temp. Windchill Dew Point Humidity Wind Precip. Elev Updated Type